createdAt,value
2022-11-07T00:02:10.360Z,3.84
2022-11-07T00:04:39.821Z,3.73
2022-11-07T00:07:13.677Z,3.49
2022-11-07T00:09:42.880Z,3.58
2022-11-07T00:12:10.454Z,3.54
2022-11-07T00:14:42.240Z,3.66
2022-11-07T00:17:10.177Z,3.77
2022-11-07T00:19:37.911Z,3.94
2022-11-07T00:22:11.391Z,4.11
2022-11-07T00:24:42.004Z,3.99
2022-11-07T00:27:09.928Z,3.98
2022-11-07T00:29:41.316Z,3.87
2022-11-07T00:32:10.311Z,4.00
2022-11-07T00:34:38.005Z,4.09
2022-11-07T00:37:06.867Z,4.16
2022-11-07T00:39:35.000Z,3.80
2022-11-07T00:42:02.671Z,3.59
2022-11-07T00:44:30.370Z,3.60
2022-11-07T00:46:58.076Z,3.58
2022-11-07T00:49:26.066Z,3.44
2022-11-07T00:51:53.642Z,3.51
2022-11-07T00:54:27.391Z,3.61
2022-11-07T00:56:55.622Z,3.72
2022-11-07T00:59:23.236Z,3.66
2022-11-07T01:01:52.191Z,3.66
2022-11-07T01:04:38.482Z,3.70
2022-11-07T01:07:07.067Z,3.69
2022-11-07T01:09:35.203Z,3.72
2022-11-07T01:12:03.492Z,3.81
2022-11-07T01:14:31.342Z,3.92
2022-11-07T01:16:58.934Z,3.98
2022-11-07T01:19:26.653Z,3.90
2022-11-07T01:21:54.290Z,3.83
2022-11-07T01:24:22.285Z,3.85
2022-11-07T01:26:51.902Z,3.94
2022-11-07T01:29:20.225Z,3.81
2022-11-07T01:31:48.214Z,3.92
2022-11-07T01:34:17.827Z,3.86
2022-11-07T01:36:45.800Z,3.86
2022-11-07T01:39:13.742Z,3.57
2022-11-07T01:41:42.344Z,3.60
2022-11-07T01:44:10.074Z,3.62
2022-11-07T01:46:40.546Z,3.52
2022-11-07T01:49:28.864Z,3.54
2022-11-07T01:52:13.119Z,3.58
2022-11-07T01:55:08.679Z,3.50
2022-11-07T01:57:47.543Z,3.52
2022-11-07T02:00:18.188Z,3.36
2022-11-07T02:02:51.667Z,3.39
2022-11-07T02:05:31.717Z,3.51
2022-11-07T02:08:03.399Z,3.71
2022-11-07T02:10:32.504Z,3.71
2022-11-07T02:13:00.853Z,3.67
2022-11-07T02:15:28.644Z,3.67
2022-11-07T02:17:57.675Z,3.61
2022-11-07T02:20:25.515Z,3.57
2022-11-07T02:22:57.402Z,3.45
2022-11-07T02:25:25.763Z,3.55
2022-11-07T02:27:58.671Z,3.55
2022-11-07T02:30:29.986Z,3.57
2022-11-07T02:32:58.168Z,3.61
2022-11-07T02:35:39.766Z,3.56
2022-11-07T02:38:26.271Z,3.53
2022-11-07T02:40:58.643Z,3.47
2022-11-07T02:43:29.679Z,3.48
2022-11-07T02:46:05.701Z,3.58
2022-11-07T02:48:42.724Z,3.56
2022-11-07T02:51:10.470Z,3.44
2022-11-07T02:53:38.937Z,3.41
2022-11-07T02:56:07.273Z,3.45
2022-11-07T02:58:37.060Z,3.46
2022-11-07T03:01:08.857Z,3.60
2022-11-07T03:03:41.399Z,3.74
2022-11-07T03:06:12.097Z,3.65
2022-11-07T03:08:40.794Z,3.56
2022-11-07T03:11:10.245Z,3.46
2022-11-07T03:13:38.692Z,3.34
2022-11-07T03:16:11.264Z,3.50
2022-11-07T03:18:38.915Z,3.60
2022-11-07T03:21:07.095Z,3.53
2022-11-07T03:23:36.161Z,3.44
2022-11-07T03:26:04.519Z,3.37
2022-11-07T03:28:32.566Z,3.28
2022-11-07T03:31:02.161Z,3.31
2022-11-07T03:33:31.008Z,3.34
2022-11-07T03:35:58.856Z,3.37
2022-11-07T03:38:26.487Z,3.45
2022-11-07T03:40:54.191Z,3.41
2022-11-07T03:43:21.786Z,3.42
2022-11-07T03:45:49.747Z,3.47
2022-11-07T03:48:17.971Z,3.56
2022-11-07T03:50:45.626Z,3.45
2022-11-07T03:53:14.305Z,3.32
2022-11-07T03:55:43.456Z,3.19
2022-11-07T03:58:11.031Z,3.11
2022-11-07T04:00:38.727Z,3.20
2022-11-07T04:03:06.449Z,3.16
2022-11-07T04:05:34.553Z,3.23
2022-11-07T04:08:02.100Z,3.27
2022-11-07T04:10:30.198Z,3.18
2022-11-07T04:13:16.376Z,3.32
2022-11-07T04:16:04.137Z,3.34
2022-11-07T04:18:32.514Z,3.37
2022-11-07T04:21:00.132Z,3.35
2022-11-07T04:23:27.768Z,3.39
2022-11-07T04:26:14.467Z,3.50
2022-11-07T04:28:42.299Z,3.48
2022-11-07T04:31:09.924Z,3.52
2022-11-07T04:33:37.490Z,3.59
2022-11-07T04:36:05.831Z,3.66
2022-11-07T04:38:33.650Z,3.54
2022-11-07T04:41:01.261Z,3.49
2022-11-07T04:43:28.982Z,3.55
2022-11-07T04:45:57.037Z,3.52
2022-11-07T04:48:24.751Z,3.53
2022-11-07T04:50:52.632Z,3.58
2022-11-07T04:53:20.833Z,3.53
2022-11-07T04:55:48.376Z,3.54
2022-11-07T04:58:15.950Z,3.67
2022-11-07T05:00:43.686Z,3.58
2022-11-07T05:03:11.376Z,3.55
2022-11-07T05:05:39.828Z,3.58
2022-11-07T05:08:08.695Z,3.56
2022-11-07T05:10:36.396Z,3.62
2022-11-07T05:13:03.980Z,3.77
2022-11-07T05:15:31.570Z,3.74
2022-11-07T05:17:59.541Z,3.66
2022-11-07T05:20:38.001Z,3.55
2022-11-07T05:23:13.020Z,3.53
2022-11-07T05:25:46.127Z,3.62
2022-11-07T05:28:28.062Z,3.54
2022-11-07T05:31:01.553Z,3.55
2022-11-07T05:33:30.092Z,3.68
2022-11-07T05:36:08.855Z,3.70
2022-11-07T05:38:37.103Z,3.72
2022-11-07T05:41:04.984Z,3.87
2022-11-07T05:43:32.598Z,3.80
2022-11-07T05:46:01.391Z,3.87
2022-11-07T05:48:30.591Z,3.53
2022-11-07T05:50:59.010Z,3.42
2022-11-07T05:53:27.410Z,3.55
2022-11-07T05:55:55.532Z,3.65
2022-11-07T05:58:24.269Z,3.63
2022-11-07T06:00:51.955Z,3.56
2022-11-07T06:03:22.795Z,3.54
2022-11-07T06:05:50.844Z,3.53
2022-11-07T06:08:18.504Z,3.47
2022-11-07T06:10:46.565Z,3.60
2022-11-07T06:13:16.821Z,3.59
2022-11-07T06:15:48.155Z,3.67
2022-11-07T06:18:19.105Z,3.59
2022-11-07T06:20:50.117Z,3.56
2022-11-07T06:23:18.649Z,3.61
2022-11-07T06:25:46.970Z,3.74
2022-11-07T06:28:15.432Z,3.64
2022-11-07T06:30:43.061Z,3.76
2022-11-07T06:33:14.993Z,3.79
2022-11-07T06:35:43.828Z,3.99
2022-11-07T06:38:13.914Z,3.90
2022-11-07T06:40:42.826Z,4.09
2022-11-07T06:43:20.298Z,4.00
2022-11-07T06:45:49.235Z,3.74
2022-11-07T06:48:16.933Z,3.80
2022-11-07T06:50:44.568Z,3.90
2022-11-07T06:53:13.973Z,3.83
2022-11-07T06:55:42.166Z,3.64
2022-11-07T06:58:09.873Z,3.56
2022-11-07T07:00:37.832Z,3.59
2022-11-07T07:03:06.275Z,3.62
2022-11-07T07:05:35.531Z,3.66
2022-11-07T07:08:04.264Z,3.61
2022-11-07T07:10:43.943Z,3.62
2022-11-07T07:13:13.012Z,3.61
2022-11-07T07:15:51.015Z,3.71
2022-11-07T07:18:20.059Z,3.81
2022-11-07T07:20:51.607Z,3.86
2022-11-07T07:23:21.035Z,3.83
2022-11-07T07:25:49.810Z,3.93
2022-11-07T07:28:17.701Z,4.09
2022-11-07T07:30:51.441Z,4.24
2022-11-07T07:33:20.673Z,4.11
2022-11-07T07:35:48.954Z,4.21
2022-11-07T07:38:16.812Z,4.16
2022-11-07T07:40:44.457Z,4.12
2022-11-07T07:43:12.447Z,4.05
2022-11-07T07:45:40.408Z,4.07
2022-11-07T07:48:08.253Z,4.09
2022-11-07T07:50:37.156Z,4.27
2022-11-07T07:53:08.862Z,4.34
2022-11-07T07:55:36.828Z,4.59
2022-11-07T07:58:04.464Z,4.28
2022-11-07T08:00:32.066Z,4.53
2022-11-07T08:03:04.406Z,4.52
2022-11-07T08:05:32.414Z,4.61
2022-11-07T08:07:59.979Z,4.66
2022-11-07T08:10:43.477Z,4.76
2022-11-07T08:13:11.422Z,4.82
2022-11-07T08:15:40.131Z,4.68
2022-11-07T08:18:07.830Z,4.58
2022-11-07T08:20:40.692Z,4.65
2022-11-07T08:23:16.153Z,4.74
2022-11-07T08:25:56.274Z,4.71
2022-11-07T08:28:26.757Z,4.85
2022-11-07T08:31:07.246Z,4.98
2022-11-07T08:33:36.676Z,5.14
2022-11-07T08:36:06.434Z,5.08
2022-11-07T08:38:35.836Z,4.94
2022-11-07T08:41:04.429Z,4.88
2022-11-07T08:43:34.064Z,4.91
2022-11-07T08:46:01.723Z,5.07
2022-11-07T08:48:30.175Z,5.17
2022-11-07T08:50:58.498Z,5.20
2022-11-07T08:53:27.232Z,5.34
2022-11-07T08:56:15.039Z,5.41
2022-11-07T08:58:44.732Z,5.50
2022-11-07T09:01:12.396Z,5.31
2022-11-07T09:03:50.696Z,5.16
2022-11-07T09:06:24.440Z,5.10
2022-11-07T09:08:52.210Z,4.98
2022-11-07T09:11:21.992Z,4.88
2022-11-07T09:13:49.975Z,4.88
2022-11-07T09:16:17.696Z,4.75
2022-11-07T09:18:47.947Z,4.90
2022-11-07T09:21:21.752Z,4.90
2022-11-07T09:23:51.030Z,5.01
2022-11-07T09:26:19.211Z,5.21
2022-11-07T09:28:51.101Z,5.25
2022-11-07T09:31:20.030Z,5.15
2022-11-07T09:33:47.647Z,5.25
2022-11-07T09:36:15.421Z,5.48
2022-11-07T09:38:44.057Z,5.68
2022-11-07T09:41:40.348Z,5.89
2022-11-07T09:44:31.769Z,5.54
2022-11-07T09:47:17.966Z,5.44
2022-11-07T09:49:58.338Z,5.43
2022-11-07T09:52:42.700Z,5.66
2022-11-07T09:55:33.638Z,5.69
2022-11-07T09:58:14.488Z,5.59
2022-11-07T10:00:42.202Z,5.49
2022-11-07T10:03:10.911Z,5.62
2022-11-07T10:05:46.497Z,5.65
2022-11-07T10:08:23.122Z,5.54
2022-11-07T10:11:01.134Z,5.53
2022-11-07T10:13:57.929Z,5.41
2022-11-07T10:17:07.206Z,5.64
2022-11-07T10:19:53.226Z,5.76
2022-11-07T10:23:08.725Z,5.73
2022-11-07T10:25:44.375Z,5.89
2022-11-07T10:28:16.068Z,6.06
2022-11-07T10:30:48.542Z,6.19
2022-11-07T10:33:21.970Z,6.33
2022-11-07T10:36:03.353Z,6.33
2022-11-07T10:38:34.411Z,6.54
2022-11-07T10:41:02.067Z,6.44
2022-11-07T10:43:40.934Z,6.32
2022-11-07T10:46:22.786Z,6.15
2022-11-07T10:49:01.639Z,6.48
2022-11-07T10:51:48.154Z,6.75
2022-11-07T10:54:32.176Z,7.24
2022-11-07T10:57:10.396Z,7.43
2022-11-07T10:59:56.340Z,7.35
2022-11-07T11:02:25.937Z,7.23
2022-11-07T11:04:58.189Z,7.24
2022-11-07T11:07:34.123Z,7.34
2022-11-07T11:10:02.304Z,7.36
2022-11-07T11:12:34.487Z,7.46
2022-11-07T11:15:13.676Z,7.56
2022-11-07T11:17:47.267Z,7.68
2022-11-07T11:20:54.076Z,7.64
2022-11-07T11:23:29.626Z,7.73
2022-11-07T11:26:01.372Z,7.67
2022-11-07T11:28:50.048Z,7.36
2022-11-07T11:31:32.382Z,7.38
2022-11-07T11:34:24.776Z,7.43
2022-11-07T11:37:01.279Z,7.67
2022-11-07T11:39:37.691Z,7.85
2022-11-07T11:42:06.279Z,7.86
2022-11-07T11:44:45.058Z,7.77
2022-11-07T11:47:35.147Z,7.86
2022-11-07T11:50:11.919Z,7.94
2022-11-07T11:52:39.926Z,8.50
2022-11-07T11:55:14.785Z,8.85
2022-11-07T11:58:12.636Z,8.70
2022-11-07T12:00:49.253Z,8.41
2022-11-07T12:03:46.194Z,7.81
2022-11-07T12:06:27.859Z,7.67
2022-11-07T12:09:28.040Z,7.65
2022-11-07T12:12:03.886Z,7.78
2022-11-07T12:14:57.973Z,7.76
2022-11-07T12:17:52.733Z,7.84
2022-11-07T12:20:34.901Z,7.69
2022-11-07T12:23:19.896Z,7.76
2022-11-07T12:26:02.971Z,7.75
2022-11-07T12:28:47.148Z,7.89
2022-11-07T12:31:17.579Z,7.77
2022-11-07T12:34:23.906Z,7.74
2022-11-07T12:37:29.462Z,7.75
2022-11-07T12:40:10.671Z,7.79
2022-11-07T12:43:00.650Z,7.92
2022-11-07T12:45:43.734Z,8.00
2022-11-07T12:48:29.733Z,7.89
2022-11-07T12:51:05.832Z,7.97
2022-11-07T12:54:06.311Z,8.07
2022-11-07T12:56:36.422Z,8.03
2022-11-07T12:59:24.836Z,8.00
2022-11-07T13:01:58.719Z,8.03
2022-11-07T13:05:04.204Z,8.08
2022-11-07T13:07:46.499Z,8.10
2022-11-07T13:10:19.744Z,7.96
2022-11-07T13:13:00.967Z,7.89
2022-11-07T13:15:47.490Z,7.90
2022-11-07T13:18:27.803Z,7.94
2022-11-07T13:21:13.718Z,7.82
2022-11-07T13:23:41.729Z,7.76
2022-11-07T13:26:32.972Z,7.66
2022-11-07T13:29:02.006Z,7.67
2022-11-07T13:31:33.257Z,7.58
2022-11-07T13:34:19.422Z,7.50
2022-11-07T13:36:50.029Z,7.47
2022-11-07T13:39:19.166Z,7.42
2022-11-07T13:41:48.860Z,7.47
2022-11-07T13:44:28.408Z,7.49
2022-11-07T13:46:59.560Z,7.48
2022-11-07T13:49:32.542Z,7.43
2022-11-07T13:52:10.316Z,7.34
2022-11-07T13:54:52.666Z,7.32
2022-11-07T13:57:23.361Z,7.34
2022-11-07T14:00:02.069Z,7.30
2022-11-07T14:02:51.033Z,7.32
2022-11-07T14:05:22.355Z,7.30
2022-11-07T14:07:55.822Z,7.31
2022-11-07T14:10:48.294Z,7.22
2022-11-07T14:13:30.345Z,7.20
2022-11-07T14:16:04.391Z,7.23
2022-11-07T14:18:43.280Z,7.19
2022-11-07T14:21:46.973Z,7.14
2022-11-07T14:24:25.011Z,7.15
2022-11-07T14:27:01.753Z,7.20
2022-11-07T14:29:29.977Z,7.12
2022-11-07T14:32:00.001Z,7.04
2022-11-07T14:34:28.833Z,7.03
2022-11-07T14:37:02.558Z,7.03
2022-11-07T14:39:33.233Z,7.07
2022-11-07T14:42:03.102Z,7.02
2022-11-07T14:44:54.563Z,7.04
2022-11-07T14:47:27.121Z,6.95
2022-11-07T14:49:55.769Z,6.92
2022-11-07T14:52:26.900Z,6.84
2022-11-07T14:55:06.660Z,6.78
2022-11-07T14:57:39.393Z,6.86
2022-11-07T15:00:13.477Z,6.87
2022-11-07T15:02:42.215Z,6.91
2022-11-07T15:05:28.437Z,6.90
2022-11-07T15:07:57.833Z,6.82
2022-11-07T15:10:32.374Z,6.80
2022-11-07T15:13:05.843Z,6.82
2022-11-07T15:15:37.460Z,6.81
2022-11-07T15:18:07.536Z,6.83
2022-11-07T15:20:38.514Z,6.82
2022-11-07T15:23:28.620Z,6.72
2022-11-07T15:26:00.291Z,6.70
2022-11-07T15:28:43.335Z,6.65
2022-11-07T15:31:26.299Z,6.64
2022-11-07T15:33:56.537Z,6.61
2022-11-07T15:36:25.261Z,6.52
2022-11-07T15:38:54.218Z,6.53
2022-11-07T15:41:21.788Z,6.48
2022-11-07T15:43:49.569Z,6.54
2022-11-07T15:46:22.396Z,6.51
2022-11-07T15:48:50.576Z,6.51
2022-11-07T15:51:18.389Z,6.54
2022-11-07T15:53:46.052Z,6.55
2022-11-07T15:56:16.791Z,6.56
2022-11-07T15:58:44.587Z,6.59
2022-11-07T16:01:12.975Z,6.61
2022-11-07T16:03:40.638Z,6.55
2022-11-07T16:06:26.081Z,6.58
2022-11-07T16:08:55.185Z,6.44
2022-11-07T16:11:23.463Z,6.33
2022-11-07T16:13:53.247Z,6.34
2022-11-07T16:16:25.989Z,6.30
2022-11-07T16:18:54.894Z,6.35
2022-11-07T16:21:24.409Z,6.35
2022-11-07T16:23:52.739Z,6.37
2022-11-07T16:26:27.475Z,6.34
2022-11-07T16:28:55.390Z,6.38
2022-11-07T16:31:23.656Z,6.35
2022-11-07T16:33:53.408Z,6.36
2022-11-07T16:36:25.343Z,6.39
2022-11-07T16:38:55.491Z,6.34
2022-11-07T16:41:23.686Z,6.28
2022-11-07T16:43:51.924Z,6.25
2022-11-07T16:46:21.653Z,6.26
2022-11-07T16:48:50.850Z,6.26
2022-11-07T16:51:20.917Z,6.20
2022-11-07T16:53:49.200Z,6.16
2022-11-07T16:56:30.222Z,6.15
2022-11-07T16:58:59.294Z,6.14
2022-11-07T17:01:28.274Z,6.09
2022-11-07T17:03:56.061Z,6.11
2022-11-07T17:06:31.037Z,6.12
2022-11-07T17:09:10.430Z,6.10
2022-11-07T17:11:43.962Z,6.10
2022-11-07T17:14:11.731Z,6.10
2022-11-07T17:16:44.179Z,6.09
2022-11-07T17:19:13.048Z,6.09
2022-11-07T17:21:46.274Z,6.13
2022-11-07T17:24:14.118Z,6.11
2022-11-07T17:26:43.059Z,5.94
2022-11-07T17:29:13.431Z,5.89
2022-11-07T17:31:42.358Z,5.87
2022-11-07T17:34:10.360Z,5.91
2022-11-07T17:36:46.745Z,5.97
2022-11-07T17:39:19.711Z,5.98
2022-11-07T17:41:50.530Z,5.98
2022-11-07T17:44:19.072Z,5.95
2022-11-07T17:46:49.589Z,5.91
2022-11-07T17:49:19.101Z,5.79
2022-11-07T17:51:47.269Z,5.74
2022-11-07T17:54:16.157Z,5.66
2022-11-07T17:56:43.760Z,5.65
2022-11-07T17:59:18.594Z,5.61
2022-11-07T18:01:46.913Z,5.56
2022-11-07T18:04:14.652Z,5.64
2022-11-07T18:06:44.013Z,5.58
2022-11-07T18:09:16.078Z,5.54
2022-11-07T18:11:46.049Z,5.52
2022-11-07T18:14:14.238Z,5.48
2022-11-07T18:16:42.241Z,5.47
2022-11-07T18:19:10.204Z,5.45
2022-11-07T18:21:37.924Z,5.34
2022-11-07T18:24:07.033Z,5.43
2022-11-07T18:26:36.966Z,5.44
2022-11-07T18:29:13.800Z,5.46
2022-11-07T18:31:47.323Z,5.45
2022-11-07T18:34:15.357Z,5.40
2022-11-07T18:36:45.313Z,5.42
2022-11-07T18:39:18.728Z,5.43
2022-11-07T18:41:47.815Z,5.39
2022-11-07T18:44:15.639Z,5.41
2022-11-07T18:46:45.195Z,5.31
2022-11-07T18:49:14.250Z,5.28
2022-11-07T18:51:44.032Z,5.30
2022-11-07T18:54:13.932Z,5.24
2022-11-07T18:56:44.486Z,5.21
2022-11-07T18:59:15.270Z,5.30
2022-11-07T19:01:43.341Z,5.32
2022-11-07T19:04:11.980Z,5.34
2022-11-07T19:06:56.851Z,5.31
2022-11-07T19:09:28.723Z,5.28
2022-11-07T19:11:59.422Z,5.27
2022-11-07T19:14:28.290Z,5.28
2022-11-07T19:16:57.600Z,5.23
2022-11-07T19:19:25.298Z,5.24
2022-11-07T19:21:54.893Z,5.05
2022-11-07T19:24:22.622Z,5.18
2022-11-07T19:26:50.305Z,5.14
2022-11-07T19:29:18.253Z,5.18
2022-11-07T19:31:46.011Z,5.16
2022-11-07T19:34:13.821Z,5.15
2022-11-07T19:36:42.253Z,5.10
2022-11-07T19:39:10.386Z,4.98
2022-11-07T19:41:39.960Z,5.06
2022-11-07T19:44:08.106Z,5.13
2022-11-07T19:46:35.757Z,5.11
2022-11-07T19:49:03.509Z,5.16
2022-11-07T19:51:31.822Z,5.15
2022-11-07T19:54:00.676Z,5.01
2022-11-07T19:56:31.355Z,4.90
2022-11-07T19:59:01.407Z,4.84
2022-11-07T20:01:32.039Z,4.93
2022-11-07T20:04:00.931Z,4.90
2022-11-07T20:06:33.168Z,4.88
2022-11-07T20:09:02.024Z,4.86
2022-11-07T20:11:29.728Z,4.97
2022-11-07T20:14:03.705Z,4.92
2022-11-07T20:16:37.197Z,4.96
2022-11-07T20:19:05.378Z,5.02
2022-11-07T20:21:34.664Z,4.97
2022-11-07T20:24:03.443Z,4.94
2022-11-07T20:26:33.154Z,4.93
2022-11-07T20:29:01.026Z,4.80
2022-11-07T20:31:32.892Z,4.72
2022-11-07T20:34:02.601Z,4.72
2022-11-07T20:36:32.099Z,4.68
2022-11-07T20:39:01.521Z,4.71
2022-11-07T20:41:30.131Z,4.73
2022-11-07T20:44:03.833Z,4.71
2022-11-07T20:46:34.153Z,4.71
2022-11-07T20:49:03.945Z,4.70
2022-11-07T20:51:34.659Z,4.68
2022-11-07T20:54:02.706Z,4.73
2022-11-07T20:56:30.847Z,4.64
2022-11-07T20:58:58.713Z,4.63
2022-11-07T21:01:37.268Z,4.61
2022-11-07T21:04:07.423Z,4.61
2022-11-07T21:06:36.309Z,4.63
2022-11-07T21:09:07.363Z,4.65
2022-11-07T21:11:37.239Z,4.57
2022-11-07T21:14:05.231Z,4.57
2022-11-07T21:16:35.963Z,4.57
2022-11-07T21:19:05.452Z,4.55
2022-11-07T21:21:34.822Z,4.53
2022-11-07T21:24:03.314Z,4.50
2022-11-07T21:26:36.091Z,4.47
2022-11-07T21:29:06.617Z,4.54
2022-11-07T21:31:36.003Z,4.42
2022-11-07T21:34:05.846Z,4.41
2022-11-07T21:36:36.137Z,4.30
2022-11-07T21:39:04.612Z,4.34
2022-11-07T21:41:32.505Z,4.33
2022-11-07T21:44:00.301Z,4.33
2022-11-07T21:46:30.867Z,4.36
2022-11-07T21:49:00.122Z,4.38
2022-11-07T21:51:31.267Z,4.25
2022-11-07T21:53:59.902Z,4.26
2022-11-07T21:56:29.872Z,4.27
2022-11-07T21:59:01.975Z,4.28
2022-11-07T22:01:35.208Z,4.31
2022-11-07T22:04:08.095Z,4.30
2022-11-07T22:06:40.907Z,4.28
2022-11-07T22:09:09.729Z,4.30
2022-11-07T22:11:38.305Z,4.23
2022-11-07T22:14:07.587Z,4.20
2022-11-07T22:16:36.830Z,4.26
2022-11-07T22:19:11.108Z,4.19
2022-11-07T22:21:40.609Z,4.21
2022-11-07T22:24:10.943Z,4.21
2022-11-07T22:26:39.024Z,4.19
2022-11-07T22:29:07.039Z,4.11
2022-11-07T22:31:36.367Z,4.06
2022-11-07T22:34:07.023Z,3.98
2022-11-07T22:36:34.725Z,3.91
2022-11-07T22:39:02.263Z,4.00
2022-11-07T22:41:30.192Z,4.07
2022-11-07T22:43:58.483Z,4.10
2022-11-07T22:46:29.005Z,4.09
2022-11-07T22:49:00.858Z,4.05
2022-11-07T22:51:31.469Z,4.04
2022-11-07T22:54:05.511Z,4.00
2022-11-07T22:56:36.237Z,3.99
2022-11-07T22:59:05.047Z,4.00
2022-11-07T23:01:36.515Z,3.95
2022-11-07T23:04:04.443Z,3.91
2022-11-07T23:06:32.463Z,3.92
2022-11-07T23:09:01.449Z,3.86
2022-11-07T23:11:48.562Z,3.89
2022-11-07T23:14:20.676Z,3.93
2022-11-07T23:16:53.409Z,3.91
2022-11-07T23:19:24.954Z,3.93
2022-11-07T23:21:55.059Z,3.84
2022-11-07T23:24:25.652Z,3.80
2022-11-07T23:26:53.320Z,3.83
2022-11-07T23:29:25.345Z,3.76
2022-11-07T23:31:54.243Z,3.71
2022-11-07T23:34:22.385Z,3.67
2022-11-07T23:36:52.636Z,3.63
2022-11-07T23:39:23.136Z,3.63
2022-11-07T23:41:50.982Z,3.60
2022-11-07T23:44:18.927Z,3.64
2022-11-07T23:47:05.143Z,3.60
2022-11-07T23:49:35.595Z,3.55
2022-11-07T23:52:04.466Z,3.56
2022-11-07T23:54:51.580Z,3.54
2022-11-07T23:57:19.369Z,3.53
